Terminal Aerodrome Forecast
Issued by NWS Cleveland, OH

Home | Current Version | Previous Version | Graphics & Text | Print | Product List | Glossary On
Versions: 1 2 3 4 5 6 7 8 9 10 11 12 13 14 15 16 17 18 19 20 21 22 23 24 25 26 27 28
000
FTUS41 KCLE 022102 AAB
TAFCLE
TAF AMD
KCLE 022102Z 0221/0324 02006KT P6SM BKN012 OVC060
      TEMPO 0221/0224 SCT012
     FM030000 03008KT P6SM OVC025
     FM031600 34008KT P6SM OVC050=

USA.gov is the U.S. government's official web portal to all federal, state and local government web resources and services.